sensor_id;sensor_type;location;lat;lon;timestamp;P1;durP1;ratioP1;P2;durP2;ratioP2
69419;SDS011;56612;52.030;113.524;2023-03-14T00:02:05;9.48;;;2.55;;
69419;SDS011;56612;52.030;113.524;2023-03-14T00:05:08;10.80;;;2.22;;
69419;SDS011;56612;52.030;113.524;2023-03-14T00:08:12;5.63;;;1.90;;
69419;SDS011;56612;52.030;113.524;2023-03-14T00:11:17;6.45;;;2.25;;
69419;SDS011;56612;52.030;113.524;2023-03-14T00:14:23;9.90;;;2.20;;
69419;SDS011;56612;52.030;113.524;2023-03-14T00:17:27;6.30;;;2.10;;
69419;SDS011;56612;52.030;113.524;2023-03-14T00:20:31;5.10;;;2.15;;
69419;SDS011;56612;52.030;113.524;2023-03-14T00:23:35;8.00;;;1.92;;
69419;SDS011;56612;52.030;113.524;2023-03-14T00:26:40;4.80;;;1.45;;
69419;SDS011;56612;52.030;113.524;2023-03-14T00:29:44;6.60;;;2.13;;
69419;SDS011;56612;52.030;113.524;2023-03-14T00:32:48;5.45;;;2.15;;
69419;SDS011;56612;52.030;113.524;2023-03-14T00:35:55;5.57;;;1.65;;
69419;SDS011;56612;52.030;113.524;2023-03-14T00:39:04;7.00;;;1.80;;
69419;SDS011;56612;52.030;113.524;2023-03-14T00:42:07;5.38;;;1.83;;
69419;SDS011;56612;52.030;113.524;2023-03-14T00:45:11;5.20;;;1.60;;
69419;SDS011;56612;52.030;113.524;2023-03-14T00:48:14;5.18;;;1.90;;
69419;SDS011;56612;52.030;113.524;2023-03-14T00:51:18;6.43;;;2.22;;
69419;SDS011;56612;52.030;113.524;2023-03-14T00:54:21;6.90;;;2.38;;
69419;SDS011;56612;52.030;113.524;2023-03-14T00:57:25;15.00;;;4.82;;
69419;SDS011;56612;52.030;113.524;2023-03-14T01:00:29;6.53;;;1.90;;
69419;SDS011;56612;52.030;113.524;2023-03-14T01:03:34;5.97;;;2.20;;
69419;SDS011;56612;52.030;113.524;2023-03-14T01:06:38;4.70;;;1.67;;
69419;SDS011;56612;52.030;113.524;2023-03-14T01:09:44;6.07;;;1.80;;
69419;SDS011;56612;52.030;113.524;2023-03-14T01:12:48;4.88;;;1.70;;
69419;SDS011;56612;52.030;113.524;2023-03-14T01:15:52;5.63;;;1.80;;
69419;SDS011;56612;52.030;113.524;2023-03-14T01:18:56;5.75;;;2.00;;
69419;SDS011;56612;52.030;113.524;2023-03-14T01:22:00;5.28;;;1.88;;
69419;SDS011;56612;52.030;113.524;2023-03-14T01:25:04;6.55;;;2.08;;
69419;SDS011;56612;52.030;113.524;2023-03-14T01:28:15;4.88;;;1.70;;
69419;SDS011;56612;52.030;113.524;2023-03-14T01:31:19;5.33;;;1.70;;
69419;SDS011;56612;52.030;113.524;2023-03-14T01:34:23;6.82;;;2.38;;
69419;SDS011;56612;52.030;113.524;2023-03-14T01:37:26;9.75;;;2.28;;
69419;SDS011;56612;52.030;113.524;2023-03-14T01:40:30;5.03;;;1.80;;
69419;SDS011;56612;52.030;113.524;2023-03-14T01:43:33;5.90;;;1.75;;
69419;SDS011;56612;52.030;113.524;2023-03-14T01:50:08;5.77;;;2.20;;
69419;SDS011;56612;52.030;113.524;2023-03-14T01:53:15;5.32;;;2.00;;
69419;SDS011;56612;52.030;113.524;2023-03-14T01:56:18;6.00;;;2.28;;
69419;SDS011;56612;52.030;113.524;2023-03-14T01:59:21;5.05;;;1.90;;
69419;SDS011;56612;52.030;113.524;2023-03-14T02:02:25;5.10;;;1.77;;
69419;SDS011;56612;52.030;113.524;2023-03-14T02:05:35;4.28;;;1.40;;
69419;SDS011;56612;52.030;113.524;2023-03-14T02:08:50;6.45;;;1.73;;
69419;SDS011;56612;52.030;113.524;2023-03-14T02:11:58;10.50;;;1.70;;
69419;SDS011;56612;52.030;113.524;2023-03-14T02:15:28;5.40;;;1.40;;
69419;SDS011;56612;52.030;113.524;2023-03-14T02:18:44;6.10;;;1.27;;
69419;SDS011;56612;52.030;113.524;2023-03-14T02:22:10;8.60;;;1.63;;
69419;SDS011;56612;52.030;113.524;2023-03-14T02:28:37;5.57;;;1.60;;
69419;SDS011;56612;52.030;113.524;2023-03-14T02:31:41;5.30;;;1.60;;
69419;SDS011;56612;52.030;113.524;2023-03-14T02:34:45;6.23;;;1.77;;
69419;SDS011;56612;52.030;113.524;2023-03-14T02:37:55;5.60;;;1.80;;
69419;SDS011;56612;52.030;113.524;2023-03-14T02:41:08;6.03;;;1.25;;
69419;SDS011;56612;52.030;113.524;2023-03-14T02:44:18;4.78;;;1.60;;
69419;SDS011;56612;52.030;113.524;2023-03-14T02:47:26;4.07;;;1.23;;
69419;SDS011;56612;52.030;113.524;2023-03-14T02:50:32;6.03;;;1.83;;
69419;SDS011;56612;52.030;113.524;2023-03-14T02:53:36;5.50;;;1.30;;
69419;SDS011;56612;52.030;113.524;2023-03-14T02:56:44;4.57;;;1.65;;
69419;SDS011;56612;52.030;113.524;2023-03-14T02:59:47;5.88;;;1.52;;
69419;SDS011;56612;52.030;113.524;2023-03-14T03:02:53;4.55;;;1.40;;
69419;SDS011;56612;52.030;113.524;2023-03-14T03:05:57;4.40;;;1.53;;
69419;SDS011;56612;52.030;113.524;2023-03-14T03:09:02;4.90;;;1.47;;
69419;SDS011;56612;52.030;113.524;2023-03-14T03:12:05;5.93;;;1.40;;
69419;SDS011;56612;52.030;113.524;2023-03-14T03:15:09;5.55;;;1.48;;
69419;SDS011;56612;52.030;113.524;2023-03-14T03:18:12;7.10;;;1.80;;
69419;SDS011;56612;52.030;113.524;2023-03-14T03:21:17;4.37;;;1.47;;
69419;SDS011;56612;52.030;113.524;2023-03-14T03:24:21;5.00;;;1.93;;
69419;SDS011;56612;52.030;113.524;2023-03-14T03:27:25;5.65;;;1.60;;
69419;SDS011;56612;52.030;113.524;2023-03-14T03:30:28;6.78;;;1.60;;
69419;SDS011;56612;52.030;113.524;2023-03-14T03:33:32;6.70;;;1.90;;
69419;SDS011;56612;52.030;113.524;2023-03-14T03:36:35;4.97;;;1.67;;
69419;SDS011;56612;52.030;113.524;2023-03-14T03:39:38;5.33;;;1.80;;
69419;SDS011;56612;52.030;113.524;2023-03-14T03:42:42;10.68;;;3.00;;
69419;SDS011;56612;52.030;113.524;2023-03-14T03:45:46;6.28;;;2.08;;
69419;SDS011;56612;52.030;113.524;2023-03-14T03:48:56;4.20;;;1.20;;
69419;SDS011;56612;52.030;113.524;2023-03-14T03:52:02;7.47;;;1.67;;
69419;SDS011;56612;52.030;113.524;2023-03-14T03:55:05;4.27;;;1.70;;
69419;SDS011;56612;52.030;113.524;2023-03-14T03:58:09;6.03;;;1.67;;
69419;SDS011;56612;52.030;113.524;2023-03-14T04:01:12;4.60;;;1.40;;
69419;SDS011;56612;52.030;113.524;2023-03-14T04:04:18;4.45;;;1.85;;
69419;SDS011;56612;52.030;113.524;2023-03-14T04:07:21;5.50;;;1.80;;
69419;SDS011;56612;52.030;113.524;2023-03-14T04:10:25;4.93;;;1.40;;
69419;SDS011;56612;52.030;113.524;2023-03-14T04:13:38;7.93;;;1.77;;
69419;SDS011;56612;52.030;113.524;2023-03-14T04:16:42;5.18;;;2.00;;
69419;SDS011;56612;52.030;113.524;2023-03-14T04:19:49;6.05;;;2.08;;
69419;SDS011;56612;52.030;113.524;2023-03-14T04:22:56;5.67;;;1.60;;
69419;SDS011;56612;52.030;113.524;2023-03-14T04:26:00;5.30;;;1.87;;
69419;SDS011;56612;52.030;113.524;2023-03-14T04:29:06;3.50;;;1.45;;
69419;SDS011;56612;52.030;113.524;2023-03-14T04:32:09;4.95;;;1.45;;
69419;SDS011;56612;52.030;113.524;2023-03-14T04:35:13;4.55;;;1.70;;
69419;SDS011;56612;52.030;113.524;2023-03-14T04:38:16;4.33;;;1.23;;
69419;SDS011;56612;52.030;113.524;2023-03-14T04:41:23;5.17;;;1.60;;
69419;SDS011;56612;52.030;113.524;2023-03-14T04:44:27;4.60;;;1.50;;
69419;SDS011;56612;52.030;113.524;2023-03-14T04:47:31;5.60;;;1.60;;
69419;SDS011;56612;52.030;113.524;2023-03-14T04:50:34;6.05;;;2.03;;
69419;SDS011;56612;52.030;113.524;2023-03-14T04:53:38;3.73;;;1.50;;
69419;SDS011;56612;52.030;113.524;2023-03-14T04:56:44;4.07;;;1.37;;
69419;SDS011;56612;52.030;113.524;2023-03-14T04:59:49;13.10;;;1.90;;
69419;SDS011;56612;52.030;113.524;2023-03-14T05:03:15;2.90;;;1.20;;
69419;SDS011;56612;52.030;113.524;2023-03-14T05:06:37;4.72;;;1.10;;
69419;SDS011;56612;52.030;113.524;2023-03-14T05:09:58;5.37;;;1.90;;
69419;SDS011;56612;52.030;113.524;2023-03-14T05:13:19;6.20;;;1.80;;
69419;SDS011;56612;52.030;113.524;2023-03-14T05:16:42;8.50;;;2.03;;
69419;SDS011;56612;52.030;113.524;2023-03-14T05:20:12;4.50;;;1.30;;
69419;SDS011;56612;52.030;113.524;2023-03-14T05:23:31;7.07;;;1.50;;
69419;SDS011;56612;52.030;113.524;2023-03-14T05:26:46;5.00;;;1.63;;
69419;SDS011;56612;52.030;113.524;2023-03-14T05:30:08;6.07;;;1.80;;
69419;SDS011;56612;52.030;113.524;2023-03-14T05:33:32;3.85;;;1.70;;
69419;SDS011;56612;52.030;113.524;2023-03-14T05:37:01;3.97;;;1.45;;
69419;SDS011;56612;52.030;113.524;2023-03-14T05:40:21;3.40;;;1.15;;
69419;SDS011;56612;52.030;113.524;2023-03-14T05:43:45;3.63;;;1.20;;
69419;SDS011;56612;52.030;113.524;2023-03-14T05:47:04;6.57;;;1.33;;
69419;SDS011;56612;52.030;113.524;2023-03-14T05:50:30;5.70;;;1.73;;
69419;SDS011;56612;52.030;113.524;2023-03-14T05:53:52;5.40;;;1.55;;
69419;SDS011;56612;52.030;113.524;2023-03-14T05:57:17;4.57;;;1.52;;
69419;SDS011;56612;52.030;113.524;2023-03-14T06:00:39;4.57;;;1.50;;
69419;SDS011;56612;52.030;113.524;2023-03-14T06:04:02;4.30;;;1.63;;
69419;SDS011;56612;52.030;113.524;2023-03-14T06:07:07;5.30;;;1.15;;
69419;SDS011;56612;52.030;113.524;2023-03-14T06:10:11;3.35;;;1.40;;
69419;SDS011;56612;52.030;113.524;2023-03-14T06:13:15;2.90;;;1.10;;
69419;SDS011;56612;52.030;113.524;2023-03-14T06:16:19;3.57;;;1.50;;
69419;SDS011;56612;52.030;113.524;2023-03-14T06:19:23;5.57;;;1.57;;
69419;SDS011;56612;52.030;113.524;2023-03-14T06:22:27;5.05;;;1.48;;
69419;SDS011;56612;52.030;113.524;2023-03-14T06:25:32;8.30;;;2.35;;
69419;SDS011;56612;52.030;113.524;2023-03-14T06:28:36;6.65;;;1.77;;
69419;SDS011;56612;52.030;113.524;2023-03-14T06:31:39;6.03;;;1.80;;
69419;SDS011;56612;52.030;113.524;2023-03-14T06:34:44;5.70;;;1.63;;
69419;SDS011;56612;52.030;113.524;2023-03-14T06:37:49;5.20;;;1.77;;
69419;SDS011;56612;52.030;113.524;2023-03-14T06:40:52;3.42;;;1.30;;
69419;SDS011;56612;52.030;113.524;2023-03-14T06:44:09;4.43;;;1.58;;
69419;SDS011;56612;52.030;113.524;2023-03-14T06:47:12;5.70;;;2.33;;
69419;SDS011;56612;52.030;113.524;2023-03-14T06:50:19;6.27;;;2.30;;
69419;SDS011;56612;52.030;113.524;2023-03-14T06:53:25;5.13;;;2.15;;
69419;SDS011;56612;52.030;113.524;2023-03-14T06:56:29;7.03;;;2.13;;
69419;SDS011;56612;52.030;113.524;2023-03-14T06:59:33;5.68;;;2.20;;
69419;SDS011;56612;52.030;113.524;2023-03-14T07:02:37;4.37;;;1.90;;
69419;SDS011;56612;52.030;113.524;2023-03-14T07:05:58;5.97;;;1.70;;
69419;SDS011;56612;52.030;113.524;2023-03-14T07:09:02;5.72;;;1.60;;
69419;SDS011;56612;52.030;113.524;2023-03-14T07:12:08;6.82;;;2.17;;
69419;SDS011;56612;52.030;113.524;2023-03-14T07:15:13;8.15;;;1.90;;
69419;SDS011;56612;52.030;113.524;2023-03-14T07:18:25;6.43;;;1.90;;
69419;SDS011;56612;52.030;113.524;2023-03-14T07:21:30;4.73;;;1.70;;
69419;SDS011;56612;52.030;113.524;2023-03-14T07:24:39;7.43;;;2.42;;
69419;SDS011;56612;52.030;113.524;2023-03-14T07:27:44;7.63;;;2.65;;
69419;SDS011;56612;52.030;113.524;2023-03-14T07:30:49;5.88;;;1.98;;
69419;SDS011;56612;52.030;113.524;2023-03-14T07:34:02;4.60;;;1.53;;
69419;SDS011;56612;52.030;113.524;2023-03-14T07:37:10;3.77;;;1.37;;
69419;SDS011;56612;52.030;113.524;2023-03-14T07:40:14;3.92;;;1.50;;
69419;SDS011;56612;52.030;113.524;2023-03-14T07:43:18;4.40;;;1.30;;
69419;SDS011;56612;52.030;113.524;2023-03-14T07:46:23;6.13;;;1.80;;
69419;SDS011;56612;52.030;113.524;2023-03-14T07:49:27;4.07;;;1.70;;
69419;SDS011;56612;52.030;113.524;2023-03-14T07:52:31;5.47;;;1.90;;
69419;SDS011;56612;52.030;113.524;2023-03-14T07:55:35;4.82;;;1.80;;
69419;SDS011;56612;52.030;113.524;2023-03-14T07:58:39;4.97;;;1.60;;
69419;SDS011;56612;52.030;113.524;2023-03-14T08:01:43;4.80;;;1.88;;
69419;SDS011;56612;52.030;113.524;2023-03-14T08:04:47;4.67;;;1.43;;
69419;SDS011;56612;52.030;113.524;2023-03-14T08:07:51;5.43;;;2.20;;
69419;SDS011;56612;52.030;113.524;2023-03-14T08:10:55;5.43;;;1.70;;
69419;SDS011;56612;52.030;113.524;2023-03-14T08:14:04;6.20;;;1.80;;
69419;SDS011;56612;52.030;113.524;2023-03-14T08:17:08;3.55;;;1.13;;
69419;SDS011;56612;52.030;113.524;2023-03-14T08:20:12;4.53;;;1.60;;
69419;SDS011;56612;52.030;113.524;2023-03-14T08:23:19;6.60;;;1.20;;
69419;SDS011;56612;52.030;113.524;2023-03-14T08:26:23;4.85;;;1.25;;
69419;SDS011;56612;52.030;113.524;2023-03-14T08:29:27;6.65;;;2.00;;
69419;SDS011;56612;52.030;113.524;2023-03-14T08:32:31;6.82;;;2.15;;
69419;SDS011;56612;52.030;113.524;2023-03-14T08:35:36;7.97;;;2.67;;
69419;SDS011;56612;52.030;113.524;2023-03-14T08:38:41;7.37;;;2.10;;
69419;SDS011;56612;52.030;113.524;2023-03-14T08:41:45;3.35;;;1.20;;
69419;SDS011;56612;52.030;113.524;2023-03-14T08:44:50;6.38;;;1.70;;
69419;SDS011;56612;52.030;113.524;2023-03-14T08:47:55;4.20;;;1.50;;
69419;SDS011;56612;52.030;113.524;2023-03-14T08:51:08;6.90;;;1.80;;
69419;SDS011;56612;52.030;113.524;2023-03-14T08:54:17;12.03;;;1.70;;
69419;SDS011;56612;52.030;113.524;2023-03-14T08:57:21;6.40;;;2.35;;
69419;SDS011;56612;52.030;113.524;2023-03-14T09:00:30;4.68;;;2.13;;
69419;SDS011;56612;52.030;113.524;2023-03-14T09:03:33;5.45;;;2.40;;
69419;SDS011;56612;52.030;113.524;2023-03-14T09:06:37;6.80;;;2.47;;
69419;SDS011;56612;52.030;113.524;2023-03-14T09:09:40;6.97;;;2.10;;
69419;SDS011;56612;52.030;113.524;2023-03-14T09:12:44;5.72;;;2.00;;
69419;SDS011;56612;52.030;113.524;2023-03-14T09:15:51;5.60;;;1.95;;
69419;SDS011;56612;52.030;113.524;2023-03-14T09:18:55;8.05;;;2.40;;
69419;SDS011;56612;52.030;113.524;2023-03-14T09:22:01;6.13;;;2.10;;
69419;SDS011;56612;52.030;113.524;2023-03-14T09:25:05;9.38;;;3.30;;
69419;SDS011;56612;52.030;113.524;2023-03-14T09:28:08;6.15;;;1.95;;
69419;SDS011;56612;52.030;113.524;2023-03-14T09:31:12;10.68;;;2.42;;
69419;SDS011;56612;52.030;113.524;2023-03-14T09:34:15;9.02;;;2.53;;
69419;SDS011;56612;52.030;113.524;2023-03-14T09:37:18;9.33;;;2.97;;
69419;SDS011;56612;52.030;113.524;2023-03-14T09:40:23;7.32;;;2.40;;
69419;SDS011;56612;52.030;113.524;2023-03-14T09:43:28;8.82;;;2.75;;
69419;SDS011;56612;52.030;113.524;2023-03-14T09:46:35;9.82;;;3.03;;
69419;SDS011;56612;52.030;113.524;2023-03-14T09:49:40;6.65;;;2.58;;
69419;SDS011;56612;52.030;113.524;2023-03-14T09:52:49;6.53;;;2.57;;
69419;SDS011;56612;52.030;113.524;2023-03-14T09:56:00;11.50;;;3.35;;
69419;SDS011;56612;52.030;113.524;2023-03-14T09:59:10;10.07;;;3.75;;
69419;SDS011;56612;52.030;113.524;2023-03-14T10:02:17;9.25;;;3.17;;
69419;SDS011;56612;52.030;113.524;2023-03-14T10:05:44;8.68;;;2.60;;
69419;SDS011;56612;52.030;113.524;2023-03-14T10:08:52;9.40;;;2.50;;
69419;SDS011;56612;52.030;113.524;2023-03-14T10:12:10;5.40;;;1.80;;
69419;SDS011;56612;52.030;113.524;2023-03-14T10:47:27;11.10;;;2.95;;
69419;SDS011;56612;52.030;113.524;2023-03-14T10:50:31;11.07;;;2.80;;
69419;SDS011;56612;52.030;113.524;2023-03-14T10:53:40;10.80;;;3.40;;
69419;SDS011;56612;52.030;113.524;2023-03-14T10:56:45;13.05;;;4.95;;
69419;SDS011;56612;52.030;113.524;2023-03-14T10:59:59;12.40;;;4.53;;
69419;SDS011;56612;52.030;113.524;2023-03-14T11:06:21;9.87;;;2.70;;
69419;SDS011;56612;52.030;113.524;2023-03-14T11:13:22;9.48;;;3.60;;
69419;SDS011;56612;52.030;113.524;2023-03-14T11:23:49;9.27;;;3.17;;
69419;SDS011;56612;52.030;113.524;2023-03-14T11:33:39;20.98;;;5.72;;
69419;SDS011;56612;52.030;113.524;2023-03-14T11:36:59;7.72;;;3.45;;
69419;SDS011;56612;52.030;113.524;2023-03-14T11:40:23;10.90;;;4.03;;
69419;SDS011;56612;52.030;113.524;2023-03-14T11:43:37;10.80;;;4.00;;
69419;SDS011;56612;52.030;113.524;2023-03-14T11:50:17;12.43;;;3.63;;
69419;SDS011;56612;52.030;113.524;2023-03-14T11:53:29;14.20;;;3.47;;
69419;SDS011;56612;52.030;113.524;2023-03-14T12:03:29;10.20;;;3.63;;
69419;SDS011;56612;52.030;113.524;2023-03-14T12:06:49;7.78;;;2.85;;
69419;SDS011;56612;52.030;113.524;2023-03-14T12:09:54;13.68;;;4.63;;
69419;SDS011;56612;52.030;113.524;2023-03-14T12:12:58;13.67;;;3.90;;
69419;SDS011;56612;52.030;113.524;2023-03-14T12:16:06;14.10;;;4.40;;
69419;SDS011;56612;52.030;113.524;2023-03-14T12:19:29;8.70;;;2.80;;
69419;SDS011;56612;52.030;113.524;2023-03-14T12:22:36;10.23;;;3.30;;
69419;SDS011;56612;52.030;113.524;2023-03-14T12:25:45;7.88;;;2.58;;
69419;SDS011;56612;52.030;113.524;2023-03-14T12:28:50;9.97;;;3.20;;
69419;SDS011;56612;52.030;113.524;2023-03-14T12:32:24;7.78;;;2.80;;
69419;SDS011;56612;52.030;113.524;2023-03-14T12:39:00;8.10;;;3.05;;
69419;SDS011;56612;52.030;113.524;2023-03-14T12:42:13;8.70;;;2.85;;
69419;SDS011;56612;52.030;113.524;2023-03-14T12:45:22;18.70;;;5.07;;
69419;SDS011;56612;52.030;113.524;2023-03-14T12:48:31;10.52;;;3.80;;
69419;SDS011;56612;52.030;113.524;2023-03-14T12:51:36;10.10;;;3.45;;
69419;SDS011;56612;52.030;113.524;2023-03-14T12:55:02;6.88;;;2.67;;
69419;SDS011;56612;52.030;113.524;2023-03-14T12:58:35;7.20;;;2.28;;
69419;SDS011;56612;52.030;113.524;2023-03-14T13:01:55;14.47;;;5.13;;
69419;SDS011;56612;52.030;113.524;2023-03-14T13:05:06;11.02;;;3.67;;
69419;SDS011;56612;52.030;113.524;2023-03-14T13:08:31;7.95;;;2.97;;
69419;SDS011;56612;52.030;113.524;2023-03-14T13:11:40;8.48;;;2.88;;
69419;SDS011;56612;52.030;113.524;2023-03-14T13:14:49;8.95;;;2.78;;
69419;SDS011;56612;52.030;113.524;2023-03-14T13:17:59;7.67;;;2.53;;
69419;SDS011;56612;52.030;113.524;2023-03-14T13:24:26;6.40;;;2.83;;
69419;SDS011;56612;52.030;113.524;2023-03-14T13:27:30;5.35;;;2.35;;
69419;SDS011;56612;52.030;113.524;2023-03-14T13:30:41;7.07;;;2.70;;
69419;SDS011;56612;52.030;113.524;2023-03-14T13:33:46;9.17;;;2.60;;
69419;SDS011;56612;52.030;113.524;2023-03-14T13:36:54;9.45;;;3.28;;
69419;SDS011;56612;52.030;113.524;2023-03-14T13:39:58;7.05;;;2.88;;
69419;SDS011;56612;52.030;113.524;2023-03-14T13:43:10;6.95;;;2.30;;
69419;SDS011;56612;52.030;113.524;2023-03-14T13:49:21;7.20;;;2.20;;
69419;SDS011;56612;52.030;113.524;2023-03-14T13:52:36;8.93;;;3.42;;
69419;SDS011;56612;52.030;113.524;2023-03-14T13:55:41;10.40;;;2.95;;
69419;SDS011;56612;52.030;113.524;2023-03-14T13:58:45;9.23;;;2.80;;
69419;SDS011;56612;52.030;113.524;2023-03-14T14:01:50;7.55;;;2.50;;
69419;SDS011;56612;52.030;113.524;2023-03-14T14:04:56;6.37;;;2.50;;
69419;SDS011;56612;52.030;113.524;2023-03-14T14:08:00;7.25;;;2.78;;
69419;SDS011;56612;52.030;113.524;2023-03-14T14:11:06;6.35;;;2.15;;
69419;SDS011;56612;52.030;113.524;2023-03-14T14:14:14;6.97;;;2.75;;
69419;SDS011;56612;52.030;113.524;2023-03-14T14:20:46;5.13;;;1.77;;
69419;SDS011;56612;52.030;113.524;2023-03-14T14:23:51;5.88;;;1.65;;
69419;SDS011;56612;52.030;113.524;2023-03-14T14:26:59;6.53;;;2.40;;
69419;SDS011;56612;52.030;113.524;2023-03-14T14:33:20;5.93;;;2.38;;
69419;SDS011;56612;52.030;113.524;2023-03-14T14:36:26;7.57;;;2.50;;
69419;SDS011;56612;52.030;113.524;2023-03-14T14:39:33;6.40;;;2.40;;
69419;SDS011;56612;52.030;113.524;2023-03-14T14:42:38;5.30;;;2.03;;
69419;SDS011;56612;52.030;113.524;2023-03-14T14:45:43;5.63;;;1.52;;
69419;SDS011;56612;52.030;113.524;2023-03-14T14:48:50;6.20;;;1.80;;
69419;SDS011;56612;52.030;113.524;2023-03-14T14:52:01;6.87;;;2.47;;
69419;SDS011;56612;52.030;113.524;2023-03-14T14:55:39;6.38;;;2.30;;
69419;SDS011;56612;52.030;113.524;2023-03-14T14:58:46;7.18;;;2.30;;
69419;SDS011;56612;52.030;113.524;2023-03-14T15:01:50;8.18;;;1.98;;
69419;SDS011;56612;52.030;113.524;2023-03-14T15:04:59;7.55;;;2.08;;
69419;SDS011;56612;52.030;113.524;2023-03-14T15:08:02;11.43;;;2.73;;
69419;SDS011;56612;52.030;113.524;2023-03-14T15:11:08;9.52;;;3.10;;
69419;SDS011;56612;52.030;113.524;2023-03-14T15:14:19;12.20;;;3.13;;
69419;SDS011;56612;52.030;113.524;2023-03-14T15:17:23;9.07;;;2.55;;
69419;SDS011;56612;52.030;113.524;2023-03-14T15:20:27;6.28;;;2.40;;
69419;SDS011;56612;52.030;113.524;2023-03-14T15:23:31;12.20;;;3.50;;
69419;SDS011;56612;52.030;113.524;2023-03-14T15:26:35;11.07;;;3.25;;
69419;SDS011;56612;52.030;113.524;2023-03-14T15:29:39;9.27;;;2.75;;
69419;SDS011;56612;52.030;113.524;2023-03-14T15:32:43;8.63;;;2.72;;
69419;SDS011;56612;52.030;113.524;2023-03-14T15:35:47;6.43;;;2.35;;
69419;SDS011;56612;52.030;113.524;2023-03-14T15:38:51;5.93;;;2.07;;
69419;SDS011;56612;52.030;113.524;2023-03-14T15:41:55;7.38;;;2.40;;
69419;SDS011;56612;52.030;113.524;2023-03-14T15:44:59;8.52;;;2.10;;
69419;SDS011;56612;52.030;113.524;2023-03-14T15:48:03;6.72;;;1.98;;
69419;SDS011;56612;52.030;113.524;2023-03-14T15:51:07;8.57;;;2.60;;
69419;SDS011;56612;52.030;113.524;2023-03-14T15:54:11;6.67;;;2.53;;
69419;SDS011;56612;52.030;113.524;2023-03-14T15:57:15;7.70;;;2.60;;
69419;SDS011;56612;52.030;113.524;2023-03-14T16:00:18;7.68;;;3.03;;
69419;SDS011;56612;52.030;113.524;2023-03-14T16:03:24;6.88;;;2.72;;
69419;SDS011;56612;52.030;113.524;2023-03-14T16:06:28;9.63;;;2.88;;
69419;SDS011;56612;52.030;113.524;2023-03-14T16:09:34;13.23;;;3.30;;
69419;SDS011;56612;52.030;113.524;2023-03-14T16:12:38;8.52;;;2.80;;
69419;SDS011;56612;52.030;113.524;2023-03-14T16:15:41;9.27;;;3.03;;
69419;SDS011;56612;52.030;113.524;2023-03-14T16:18:44;10.07;;;3.10;;
69419;SDS011;56612;52.030;113.524;2023-03-14T16:21:48;9.52;;;2.63;;
69419;SDS011;56612;52.030;113.524;2023-03-14T16:24:53;11.77;;;3.67;;
69419;SDS011;56612;52.030;113.524;2023-03-14T16:27:56;9.25;;;2.63;;
69419;SDS011;56612;52.030;113.524;2023-03-14T16:31:15;12.23;;;3.13;;
69419;SDS011;56612;52.030;113.524;2023-03-14T16:34:20;9.35;;;3.20;;
69419;SDS011;56612;52.030;113.524;2023-03-14T16:37:24;9.45;;;2.85;;
69419;SDS011;56612;52.030;113.524;2023-03-14T16:40:28;8.40;;;2.63;;
69419;SDS011;56612;52.030;113.524;2023-03-14T16:43:32;8.10;;;2.50;;
69419;SDS011;56612;52.030;113.524;2023-03-14T16:46:39;7.13;;;2.25;;
69419;SDS011;56612;52.030;113.524;2023-03-14T16:49:43;9.88;;;2.88;;
69419;SDS011;56612;52.030;113.524;2023-03-14T16:52:47;9.30;;;2.53;;
69419;SDS011;56612;52.030;113.524;2023-03-14T16:55:50;7.83;;;2.47;;
69419;SDS011;56612;52.030;113.524;2023-03-14T16:58:54;7.35;;;2.45;;
69419;SDS011;56612;52.030;113.524;2023-03-14T17:01:58;7.25;;;2.42;;
69419;SDS011;56612;52.030;113.524;2023-03-14T17:05:02;7.18;;;2.30;;
69419;SDS011;56612;52.030;113.524;2023-03-14T17:08:06;5.32;;;1.98;;
69419;SDS011;56612;52.030;113.524;2023-03-14T17:11:10;6.20;;;1.80;;
69419;SDS011;56612;52.030;113.524;2023-03-14T17:14:14;6.97;;;1.50;;
69419;SDS011;56612;52.030;113.524;2023-03-14T17:17:18;7.80;;;1.90;;
69419;SDS011;56612;52.030;113.524;2023-03-14T17:20:22;4.97;;;1.48;;
69419;SDS011;56612;52.030;113.524;2023-03-14T17:23:26;8.25;;;2.30;;
69419;SDS011;56612;52.030;113.524;2023-03-14T17:26:31;8.80;;;1.77;;
69419;SDS011;56612;52.030;113.524;2023-03-14T17:29:36;5.88;;;1.70;;
69419;SDS011;56612;52.030;113.524;2023-03-14T17:32:40;4.50;;;1.80;;
69419;SDS011;56612;52.030;113.524;2023-03-14T17:35:43;5.90;;;1.70;;
69419;SDS011;56612;52.030;113.524;2023-03-14T17:38:47;8.68;;;1.70;;
69419;SDS011;56612;52.030;113.524;2023-03-14T17:41:50;6.27;;;1.90;;
69419;SDS011;56612;52.030;113.524;2023-03-14T17:44:54;5.85;;;1.98;;
69419;SDS011;56612;52.030;113.524;2023-03-14T17:47:59;6.55;;;1.80;;
69419;SDS011;56612;52.030;113.524;2023-03-14T17:51:05;13.30;;;2.67;;
69419;SDS011;56612;52.030;113.524;2023-03-14T17:54:10;5.72;;;1.88;;
69419;SDS011;56612;52.030;113.524;2023-03-14T17:57:13;6.30;;;2.17;;
69419;SDS011;56612;52.030;113.524;2023-03-14T18:00:17;6.03;;;2.15;;
69419;SDS011;56612;52.030;113.524;2023-03-14T18:03:21;9.13;;;2.65;;
69419;SDS011;56612;52.030;113.524;2023-03-14T18:06:25;8.23;;;2.78;;
69419;SDS011;56612;52.030;113.524;2023-03-14T18:09:32;9.82;;;3.20;;
69419;SDS011;56612;52.030;113.524;2023-03-14T18:12:35;9.43;;;2.97;;
69419;SDS011;56612;52.030;113.524;2023-03-14T18:15:38;6.65;;;1.75;;
69419;SDS011;56612;52.030;113.524;2023-03-14T18:18:42;8.27;;;1.98;;
69419;SDS011;56612;52.030;113.524;2023-03-14T18:21:49;8.07;;;2.22;;
69419;SDS011;56612;52.030;113.524;2023-03-14T18:24:53;5.75;;;1.60;;
69419;SDS011;56612;52.030;113.524;2023-03-14T18:27:56;4.67;;;1.40;;
69419;SDS011;56612;52.030;113.524;2023-03-14T18:31:05;6.60;;;1.58;;
69419;SDS011;56612;52.030;113.524;2023-03-14T18:34:10;5.93;;;2.13;;
69419;SDS011;56612;52.030;113.524;2023-03-14T18:37:14;6.75;;;1.92;;
69419;SDS011;56612;52.030;113.524;2023-03-14T18:40:18;5.85;;;1.48;;
69419;SDS011;56612;52.030;113.524;2023-03-14T18:43:21;6.23;;;1.40;;
69419;SDS011;56612;52.030;113.524;2023-03-14T18:46:25;5.53;;;1.52;;
69419;SDS011;56612;52.030;113.524;2023-03-14T18:49:29;6.10;;;1.25;;
69419;SDS011;56612;52.030;113.524;2023-03-14T18:52:36;5.25;;;1.70;;
69419;SDS011;56612;52.030;113.524;2023-03-14T18:55:40;7.57;;;2.00;;
69419;SDS011;56612;52.030;113.524;2023-03-14T18:58:44;5.57;;;1.77;;
69419;SDS011;56612;52.030;113.524;2023-03-14T19:01:48;7.60;;;1.60;;
69419;SDS011;56612;52.030;113.524;2023-03-14T19:04:52;10.45;;;2.22;;
69419;SDS011;56612;52.030;113.524;2023-03-14T19:07:56;4.18;;;1.45;;
69419;SDS011;56612;52.030;113.524;2023-03-14T19:11:00;4.78;;;1.90;;
69419;SDS011;56612;52.030;113.524;2023-03-14T19:14:05;6.70;;;2.00;;
69419;SDS011;56612;52.030;113.524;2023-03-14T19:17:09;6.07;;;1.65;;
69419;SDS011;56612;52.030;113.524;2023-03-14T19:20:13;4.65;;;1.60;;
69419;SDS011;56612;52.030;113.524;2023-03-14T19:23:17;6.93;;;1.95;;
69419;SDS011;56612;52.030;113.524;2023-03-14T19:26:20;5.82;;;1.90;;
69419;SDS011;56612;52.030;113.524;2023-03-14T19:29:25;4.57;;;1.50;;
69419;SDS011;56612;52.030;113.524;2023-03-14T19:32:29;10.88;;;2.45;;
69419;SDS011;56612;52.030;113.524;2023-03-14T19:35:33;6.68;;;2.30;;
69419;SDS011;56612;52.030;113.524;2023-03-14T19:38:36;4.95;;;1.40;;
69419;SDS011;56612;52.030;113.524;2023-03-14T19:41:40;5.07;;;1.73;;